Time;durP1;ratioP1;P1;durP2;ratioP2;P2;SDS_P1;SDS_P2;PMS_P1;PMS_P2;Temp;Humidity;BMP_temperature;BMP_pressure;BME280_temperature;BME280_humidity;BME280_pressure;Samples;Min_cycle;Max_cycle;Signal;HPM_P1;HPM_P2
2022/01/18 00:02:45;;;;;;;35.65;12.13;;;;;;;3.49;100.00;103887.56;10502808;28;20033;-78
2022/01/18 00:07:47;;;;;;;25.65;11.43;;;;;;;3.48;100.00;103883.16;10501784;28;20503;-77
2022/01/18 00:23:03;;;;;;;37.53;10.20;;;;;;;3.45;100.00;103895.84;10501353;28;20127;-78
2022/01/18 00:28:06;;;;;;;32.67;10.93;;;;;;;3.41;100.00;103907.63;10501408;28;20043;-78
2022/01/18 00:33:21;;;;;;;35.63;12.60;;;;;;;3.39;100.00;103899.69;10501131;28;20468;-78
2022/01/18 00:43:48;;;;;;;29.33;8.90;;;;;;;3.50;100.00;103902.66;10498892;28;20050;-76
2022/01/18 00:48:51;;;;;;;39.80;12.95;;;;;;;3.46;100.00;103901.09;10500640;28;20491;-77
2022/01/18 00:53:52;;;;;;;29.48;10.68;;;;;;;3.45;100.00;103903.88;10500087;28;20048;-77
2022/01/18 00:58:52;;;;;;;24.77;9.95;;;;;;;3.50;100.00;103905.34;10498974;28;20055;-78
2022/01/18 01:03:55;;;;;;;24.70;9.70;;;;;;;3.53;100.00;103903.47;10498716;28;20085;-78
2022/01/18 01:08:56;;;;;;;24.70;9.00;;;;;;;3.40;100.00;103900.53;10499079;28;20032;-78
2022/01/18 01:13:58;;;;;;;38.10;9.38;;;;;;;3.24;100.00;103895.94;10499673;28;20032;-77
2022/01/18 01:45:02;;;;;;;24.83;9.30;;;;;;;3.33;100.00;103889.28;10496942;28;20399;-77
2022/01/18 01:50:08;;;;;;;30.00;8.88;;;;;;;3.30;100.00;103888.56;10498452;28;20068;-77
2022/01/18 01:55:08;;;;;;;28.92;7.35;;;;;;;3.20;100.00;103889.00;10497317;28;20021;-79
2022/01/18 02:00:11;;;;;;;28.40;10.23;;;;;;;3.13;100.00;103897.44;10498550;28;20430;-78
2022/01/18 02:05:12;;;;;;;41.38;10.85;;;;;;;3.17;100.00;103902.56;10481509;28;20142;-78
2022/01/18 02:10:12;;;;;;;25.00;7.10;;;;;;;3.29;100.00;103890.38;10496227;28;20027;-78
2022/01/18 02:15:18;;;;;;;33.90;9.65;;;;;;;3.26;100.00;103888.72;10498656;28;20036;-77
2022/01/18 02:25:42;;;;;;;29.48;7.75;;;;;;;3.16;100.00;103891.91;10505770;28;20032;-78
2022/01/18 02:30:44;;;;;;;25.15;8.57;;;;;;;3.15;100.00;103890.19;10505752;28;20033;-79
2022/01/18 02:35:45;;;;;;;17.10;8.20;;;;;;;3.14;100.00;103894.66;10505784;28;20048;-78
2022/01/18 02:40:46;;;;;;;22.08;6.45;;;;;;;3.21;100.00;103888.06;10505530;28;20024;-81
2022/01/18 02:45:46;;;;;;;15.57;7.32;;;;;;;3.23;100.00;103883.50;10504669;28;20032;-80
2022/01/18 02:50:47;;;;;;;26.67;8.02;;;;;;;3.19;100.00;103898.00;10504571;28;20035;-81
2022/01/18 02:55:52;;;;;;;27.17;8.05;;;;;;;3.17;100.00;103888.31;10505320;28;20387;-81
2022/01/18 03:06:08;;;;;;;21.70;7.18;;;;;;;3.07;100.00;103879.00;10506249;28;20040;-80
2022/01/18 03:11:09;;;;;;;19.40;7.22;;;;;;;3.12;100.00;103882.28;10505273;28;20360;-80
2022/01/18 03:16:10;;;;;;;28.20;8.15;;;;;;;3.23;100.00;103882.66;10503886;28;20092;-80
2022/01/18 03:21:11;;;;;;;24.48;8.20;;;;;;;3.24;100.00;103884.38;10503152;28;20048;-81
2022/01/18 03:26:16;;;;;;;23.13;9.65;;;;;;;3.19;100.00;103889.97;10502952;28;20036;-80
2022/01/18 03:31:16;;;;;;;13.38;6.97;;;;;;;3.09;100.00;103891.34;10501503;28;20391;-81
2022/01/18 03:36:18;;;;;;;39.38;8.27;;;;;;;2.96;100.00;103888.38;10502707;28;20135;-80
2022/01/18 03:41:18;;;;;;;41.78;10.18;;;;;;;2.86;100.00;103892.44;10501679;28;20090;-80
2022/01/18 03:46:19;;;;;;;14.63;8.20;;;;;;;2.80;100.00;103882.03;10502040;28;20048;-80
2022/01/18 03:51:20;;;;;;;22.73;9.05;;;;;;;2.73;100.00;103893.97;10501745;28;20037;-81
2022/01/18 03:56:21;;;;;;;30.17;8.98;;;;;;;2.62;100.00;103890.97;10502038;28;20391;-80
2022/01/18 04:01:22;;;;;;;13.32;7.75;;;;;;;2.50;100.00;103895.06;10517547;28;20051;-80
2022/01/18 04:06:23;;;;;;;24.52;8.40;;;;;;;2.50;100.00;103909.31;10484538;28;20042;-80
2022/01/18 04:11:23;;;;;;;20.80;8.70;;;;;;;2.49;100.00;103904.91;10517641;28;20116;-80
2022/01/18 04:16:24;;;;;;;46.58;11.85;;;;;;;2.47;100.00;103913.94;10500719;28;20142;-80
2022/01/18 04:31:44;;;;;;;20.83;9.30;;;;;;;2.51;100.00;103924.41;10500889;28;20041;-81
2022/01/18 04:36:47;;;;;;;13.30;8.38;;;;;;;2.58;100.00;103924.13;10501143;28;20048;-79
2022/01/18 04:41:48;;;;;;;39.58;8.63;;;;;;;2.62;100.00;103923.06;10483674;28;20028;-80
2022/01/18 04:52:10;;;;;;;31.92;7.80;;;;;;;2.68;100.00;103914.72;10518454;28;20032;-81
2022/01/18 05:02:11;;;;;;;9.10;6.30;;;;;;;2.65;100.00;103912.19;10481929;28;20128;-80
2022/01/18 05:07:14;;;;;;;11.85;6.90;;;;;;;2.71;100.00;103922.63;10502228;28;20045;-80
2022/01/18 05:12:21;;;;;;;9.95;6.65;;;;;;;2.69;100.00;103919.16;10498480;28;20056;-79
2022/01/18 05:17:38;;;;;;;22.92;7.25;;;;;;;2.63;100.00;103919.44;10499638;28;20043;-81
2022/01/18 05:23:00;;;;;;;10.90;5.88;;;;;;;2.61;100.00;103921.31;10498860;28;20448;-80
2022/01/18 05:28:03;;;;;;;6.90;4.78;;;;;;;2.61;100.00;103910.59;10500027;28;20456;-80
2022/01/18 05:33:03;;;;;;;20.23;6.03;;;;;;;2.64;100.00;103911.34;10516111;28;20056;-79
2022/01/18 05:38:05;;;;;;;7.45;4.72;;;;;;;2.65;100.00;103912.19;10501038;28;20079;-78
2022/01/18 05:43:05;;;;;;;26.15;6.15;;;;;;;2.73;100.00;103910.91;10481098;28;20037;-78
2022/01/18 05:48:06;;;;;;;6.15;5.60;;;;;;;2.75;100.00;103917.06;10498173;28;20372;-77
2022/01/18 05:53:06;;;;;;;22.95;5.75;;;;;;;2.84;100.00;103917.53;10479931;28;20119;-78
2022/01/18 05:58:07;;;;;;;22.73;5.05;;;;;;;2.92;100.00;103905.53;10481066;28;20051;-81
2022/01/18 06:03:15;;;;;;;15.88;8.32;;;;;;;2.92;100.00;103902.88;10499230;28;20098;-80
2022/01/18 06:08:16;;;;;;;22.80;4.95;;;;;;;2.84;100.00;103909.53;10498483;28;20162;-79
2022/01/18 06:13:16;;;;;;;26.73;7.05;;;;;;;2.71;100.00;103907.44;10498295;28;20166;-77
2022/01/18 06:18:17;;;;;;;12.38;7.88;;;;;;;2.63;100.00;103903.38;10480502;28;20123;-78
2022/01/18 06:23:19;;;;;;;27.58;8.05;;;;;;;2.57;100.00;103904.53;10497036;28;20032;-79
2022/01/18 06:28:20;;;;;;;17.98;8.65;;;;;;;2.60;100.00;103904.41;10498184;28;20036;-79
2022/01/18 06:33:20;;;;;;;18.15;6.35;;;;;;;2.63;100.00;103914.09;10481028;28;20063;-79
2022/01/18 06:38:21;;;;;;;31.85;7.68;;;;;;;2.64;100.00;103921.16;10514272;28;20064;-79
2022/01/18 06:43:21;;;;;;;13.98;6.95;;;;;;;2.75;100.00;103911.72;10497803;28;20029;-79
2022/01/18 06:48:22;;;;;;;27.73;8.15;;;;;;;2.82;100.00;103906.94;10497769;28;20064;-80
2022/01/18 06:53:22;;;;;;;29.30;6.70;;;;;;;2.81;100.00;103910.56;10496295;28;20068;-79
2022/01/18 06:58:23;;;;;;;15.18;6.20;;;;;;;2.83;100.00;103916.69;10497464;28;20047;-80
2022/01/18 07:03:23;;;;;;;48.35;7.97;;;;;;;2.82;100.00;103919.44;10496363;28;20043;-79
2022/01/18 07:08:23;;;;;;;33.42;8.27;;;;;;;2.72;100.00;103924.38;10503961;28;20464;-80
2022/01/18 07:13:24;;;;;;;20.02;6.57;;;;;;;2.63;100.00;103922.13;10504947;28;20043;-79
2022/01/18 07:18:25;;;;;;;16.95;5.78;;;;;;;2.59;100.00;103921.41;10503107;28;20037;-78
2022/01/18 07:23:25;;;;;;;6.65;5.05;;;;;;;2.58;100.00;103918.78;10504883;28;20088;-78
2022/01/18 07:28:25;;;;;;;4.90;4.25;;;;;;;2.61;100.00;103927.53;10509882;28;20032;-79
2022/01/18 07:33:26;;;;;;;5.22;3.90;;;;;;;2.61;100.00;103926.66;10508179;28;20148;-80
2022/01/18 07:38:26;;;;;;;4.38;3.65;;;;;;;2.61;100.00;103932.00;10504842;28;20072;-79
2022/01/18 07:43:27;;;;;;;5.65;4.90;;;;;;;2.57;100.00;103931.28;10486338;28;20044;-79
2022/01/18 07:48:29;;;;;;;2.58;2.38;;;;;;;2.58;100.00;103930.34;10502802;28;20037;-79
2022/01/18 07:53:29;;;;;;;3.55;3.25;;;;;;;2.69;100.00;103935.22;10502995;28;20471;-79
2022/01/18 07:58:29;;;;;;;7.00;3.40;;;;;;;2.80;100.00;103943.59;10502001;28;20127;-79
2022/01/18 08:03:30;;;;;;;11.25;3.05;;;;;;;2.89;100.00;103942.31;10485860;28;20052;-79
2022/01/18 08:08:32;;;;;;;14.15;8.98;;;;;;;2.94;100.00;103945.63;10501012;28;20431;-80
2022/01/18 08:13:39;;;;;;;20.05;9.27;;;;;;;3.02;100.00;103938.09;10501389;28;20039;-79
2022/01/18 08:18:39;;;;;;;16.75;10.63;;;;;;;3.19;100.00;103943.53;10501188;28;20034;-79
2022/01/18 08:23:40;;;;;;;12.57;9.32;;;;;;;3.18;100.00;103948.94;10501643;28;20503;-79
2022/01/18 08:28:40;;;;;;;22.13;12.68;;;;;;;3.24;100.00;103952.19;10501462;28;20037;-79
2022/01/18 08:33:41;;;;;;;16.35;10.95;;;;;;;3.25;100.00;103956.63;10500971;28;20084;-79
2022/01/18 08:38:41;;;;;;;60.17;12.32;;;;;;;3.13;100.00;103957.22;10483782;28;20058;-80
2022/01/18 08:43:41;;;;;;;39.05;15.07;;;;;;;3.01;100.00;103964.00;10483035;28;20127;-80
2022/01/18 08:48:42;;;;;;;32.55;14.25;;;;;;;3.16;100.00;103962.41;10500197;28;20039;-80
2022/01/18 08:53:48;;;;;;;50.20;16.30;;;;;;;3.30;100.00;103969.78;10482493;28;20082;-80
2022/01/18 08:58:48;;;;;;;105.78;21.52;;;;;;;3.26;100.00;103969.06;10483942;28;20081;-80
2022/01/18 09:03:52;;;;;;;38.22;15.43;;;;;;;3.31;100.00;103966.13;10482775;28;20381;-79
2022/01/18 09:08:56;;;;;;;25.13;9.95;;;;;;;3.43;100.00;103970.91;10500165;28;20468;-79
2022/01/18 09:13:57;;;;;;;51.05;15.32;;;;;;;3.41;100.00;103961.19;10499643;28;20379;-80
2022/01/18 09:18:57;;;;;;;62.15;16.35;;;;;;;3.56;100.00;103963.13;10500694;28;20067;-80
2022/01/18 09:23:58;;;;;;;60.88;14.43;;;;;;;3.79;100.00;103961.97;10499461;28;20036;-80
2022/01/18 09:28:58;;;;;;;55.40;13.13;;;;;;;3.94;100.00;103963.88;10515797;28;20036;-80
2022/01/18 09:33:58;;;;;;;54.05;13.70;;;;;;;4.09;100.00;103966.72;10515568;28;20678;-80
2022/01/18 09:38:59;;;;;;;38.28;10.77;;;;;;;4.22;100.00;103966.94;10497925;28;20115;-79
2022/01/18 09:43:59;;;;;;;52.25;12.85;;;;;;;4.33;100.00;103969.91;10498560;28;20550;-79
2022/01/18 09:49:00;;;;;;;58.63;16.27;;;;;;;4.35;100.00;103966.22;10498614;28;20463;-79
2022/01/18 09:54:01;;;;;;;38.05;13.40;;;;;;;4.36;100.00;103977.81;10499348;28;20029;-80
2022/01/18 09:59:02;;;;;;;27.60;11.38;;;;;;;4.29;100.00;103977.25;10498553;28;20482;-79
2022/01/18 10:04:13;;;;;;;29.13;10.52;;;;;;;4.52;100.00;103970.66;10503369;28;20033;-79
2022/01/18 10:09:14;;;;;;;16.20;10.95;;;;;;;4.70;100.00;103970.63;10491125;28;20035;-79
2022/01/18 10:14:19;;;;;;;17.73;10.18;;;;;;;4.73;100.00;103978.53;10499857;28;20079;-80
2022/01/18 10:19:50;;;;;;;25.92;10.50;;;;;;;4.76;100.00;103968.47;10481808;28;20029;-80
2022/01/18 10:24:52;;;;;;;30.05;12.50;;;;;;;4.75;100.00;103977.47;10487178;28;20131;-80
2022/01/18 10:29:53;;;;;;;27.33;14.35;;;;;;;4.79;100.00;103976.38;10499066;28;20036;-80
2022/01/18 10:39:59;;;;;;;94.40;20.20;;;;;;;5.01;100.00;103977.84;10503614;28;20081;-80
2022/01/18 10:45:28;;;;;;;59.25;21.13;;;;;;;5.03;100.00;103967.91;10508504;28;20426;-80
2022/01/18 10:50:36;;;;;;;54.97;16.75;;;;;;;4.95;100.00;103971.03;10511029;28;20044;-80
2022/01/18 10:55:36;;;;;;;49.28;15.82;;;;;;;4.96;100.00;103970.06;10511315;28;20032;-80
2022/01/18 11:00:38;;;;;;;48.67;16.60;;;;;;;4.98;100.00;103975.34;10527103;28;20033;-80
2022/01/18 11:05:40;;;;;;;54.63;17.95;;;;;;;4.85;100.00;103967.97;10508056;28;20054;-80
2022/01/18 11:10:41;;;;;;;41.95;18.92;;;;;;;4.85;100.00;103961.72;10508705;28;20060;-80
2022/01/18 11:15:45;;;;;;;50.70;22.20;;;;;;;5.06;100.00;103957.84;10507594;28;20044;-80
2022/01/18 11:20:47;;;;;;;47.03;21.58;;;;;;;5.22;100.00;103941.72;10494082;28;20033;-80
2022/01/18 11:25:48;;;;;;;67.97;26.48;;;;;;;5.20;100.00;103949.03;10529130;28;20472;-80
2022/01/18 11:30:49;;;;;;;63.08;25.27;;;;;;;4.91;100.00;103947.94;10509103;28;20090;-80
2022/01/18 11:36:02;;;;;;;92.63;28.33;;;;;;;4.96;100.00;103945.88;10511583;28;20082;-80
2022/01/18 11:41:02;;;;;;;49.85;27.15;;;;;;;5.16;100.00;103942.06;10502378;28;20094;-80
2022/01/18 11:46:26;;;;;;;33.83;20.98;;;;;;;5.32;100.00;103937.53;10518626;28;20036;-81
2022/01/18 11:51:48;;;;;;;46.80;22.42;;;;;;;5.29;100.00;103932.34;10523250;28;20058;-80
2022/01/18 11:56:50;;;;;;;40.65;23.20;;;;;;;5.41;100.00;103925.41;10529012;28;20097;-80
2022/01/18 12:01:55;;;;;;;50.67;20.13;;;;;;;5.63;100.00;103911.56;10533272;28;20036;-81
2022/01/18 12:06:56;;;;;;;48.05;22.23;;;;;;;5.70;100.00;103912.06;10525778;28;20099;-80
2022/01/18 12:11:58;;;;;;;33.65;21.00;;;;;;;5.76;100.00;103900.94;10514957;28;20036;-80
2022/01/18 12:17:20;;;;;;;51.88;23.88;;;;;;;5.79;100.00;103908.84;10501204;28;20036;-81
2022/01/18 12:23:03;;;;;;;76.72;26.80;;;;;;;5.88;100.00;103900.22;10526881;28;20115;-81
2022/01/18 12:33:56;;;;;;;52.35;27.58;;;;;;;6.10;100.00;103902.50;10517061;28;20056;-80
2022/01/18 12:39:00;;;;;;;57.38;24.83;;;;;;;6.12;100.00;103889.78;10509445;28;20032;-80
2022/01/18 12:49:20;;;;;;;60.88;29.80;;;;;;;6.23;100.00;103898.09;10532914;28;20035;-80
2022/01/18 12:54:33;;;;;;;55.50;23.42;;;;;;;6.32;100.00;103885.88;10519579;28;20487;-82
2022/01/18 12:59:34;;;;;;;49.78;24.52;;;;;;;6.23;100.00;103884.63;10519006;28;20080;-81
2022/01/18 13:04:34;;;;;;;48.35;22.13;;;;;;;6.24;100.00;103882.78;10501683;28;20109;-81
2022/01/18 13:09:53;;;;;;;62.72;25.33;;;;;;;6.13;100.00;103880.78;10518947;28;20112;-80
2022/01/18 13:14:55;;;;;;;60.25;25.20;;;;;;;6.21;100.00;103878.47;10513098;28;20086;-81
2022/01/18 13:25:15;;;;;;;62.53;27.70;;;;;;;6.24;100.00;103862.13;10518973;28;20040;-80
2022/01/18 13:30:22;;;;;;;52.00;22.40;;;;;;;6.26;100.00;103860.22;10517134;28;20036;-81
2022/01/18 13:35:25;;;;;;;58.72;24.42;;;;;;;6.31;100.00;103851.84;10479262;28;20159;-81
2022/01/18 13:40:27;;;;;;;55.92;23.83;;;;;;;6.37;100.00;103864.06;10509704;28;20048;-81
2022/01/18 13:45:27;;;;;;;56.30;22.60;;;;;;;6.47;100.00;103841.81;10508537;28;20064;-81
2022/01/18 13:50:48;;;;;;;54.97;22.55;;;;;;;6.48;100.00;103843.56;10502822;28;20482;-81
2022/01/18 13:55:53;;;;;;;57.38;28.13;;;;;;;6.46;100.00;103839.25;10501372;28;20032;-81
2022/01/18 14:01:08;;;;;;;56.33;26.30;;;;;;;6.44;100.00;103836.63;10483642;28;20488;-81
2022/01/18 14:06:09;;;;;;;62.72;28.75;;;;;;;6.52;100.00;103834.31;10484556;28;20040;-81
2022/01/18 14:11:10;;;;;;;49.20;26.58;;;;;;;6.62;100.00;103826.50;10481889;28;20029;-81
2022/01/18 14:16:31;;;;;;;78.75;28.70;;;;;;;6.70;100.00;103823.31;10488023;28;20032;-81
2022/01/18 14:21:37;;;;;;;46.50;26.95;;;;;;;6.64;100.00;103811.13;10505807;28;20477;-81
2022/01/18 14:26:41;;;;;;;50.60;28.93;;;;;;;6.59;100.00;103813.25;10522571;28;20039;-81
2022/01/18 14:31:41;;;;;;;53.40;27.52;;;;;;;6.62;100.00;103801.41;10505363;28;20464;-81
2022/01/18 14:36:53;;;;;;;59.28;30.38;;;;;;;6.55;100.00;103790.19;10508192;28;20085;-81
2022/01/18 14:42:05;;;;;;;57.38;26.35;;;;;;;6.43;100.00;103793.69;10505537;28;20130;-81
2022/01/18 14:47:25;;;;;;;66.53;28.35;;;;;;;6.47;100.00;103795.19;10488695;28;20040;-81
2022/01/18 14:52:26;;;;;;;70.30;32.40;;;;;;;6.45;100.00;103784.53;10506224;28;20372;-81
2022/01/18 14:57:28;;;;;;;56.70;29.02;;;;;;;6.41;100.00;103774.06;10503549;28;20107;-81
2022/01/18 15:02:30;;;;;;;46.17;27.40;;;;;;;6.41;100.00;103760.59;10505209;28;20032;-81
2022/01/18 15:07:30;;;;;;;62.15;29.45;;;;;;;6.40;100.00;103766.97;10505625;28;20037;-81
2022/01/18 15:12:31;;;;;;;57.60;28.40;;;;;;;6.36;100.00;103762.75;10487837;28;20143;-81
2022/01/18 15:17:31;;;;;;;52.17;27.98;;;;;;;6.25;100.00;103750.84;10533304;28;20045;-81
2022/01/18 15:22:32;;;;;;;57.53;29.35;;;;;;;6.21;100.00;103740.38;10509141;28;20047;-82
2022/01/18 15:27:33;;;;;;;65.15;28.50;;;;;;;6.11;100.00;103732.03;10508461;28;20036;-82
2022/01/18 15:32:33;;;;;;;46.90;25.33;;;;;;;6.02;100.00;103736.16;10506079;28;20039;-81
2022/01/18 15:37:34;;;;;;;56.00;27.13;;;;;;;5.98;100.00;103725.72;10486238;28;20056;-82
2022/01/18 15:42:34;;;;;;;56.58;28.92;;;;;;;5.92;100.00;103731.44;10519062;28;20033;-81
2022/01/18 15:47:35;;;;;;;62.08;29.00;;;;;;;5.79;100.00;103718.78;10504602;28;20063;-81
2022/01/18 15:52:36;;;;;;;55.78;27.17;;;;;;;5.61;100.00;103711.84;10485786;28;20036;-81
2022/01/18 15:57:36;;;;;;;49.03;27.65;;;;;;;5.41;100.00;103704.19;10502700;28;20047;-82
2022/01/18 16:02:39;;;;;;;55.55;28.33;;;;;;;5.26;100.00;103705.97;10503392;28;20082;-81
2022/01/18 16:07:39;;;;;;;54.53;27.60;;;;;;;5.09;100.00;103704.31;10502616;28;20070;-82
2022/01/18 16:12:40;;;;;;;45.15;24.63;;;;;;;4.96;100.00;103706.03;10508153;28;20115;-81
2022/01/18 16:17:40;;;;;;;57.13;24.80;;;;;;;4.93;100.00;103704.38;10503413;28;20094;-81
2022/01/18 16:22:41;;;;;;;72.40;31.38;;;;;;;5.03;100.00;103702.00;10501573;28;20044;-81
2022/01/18 16:27:41;;;;;;;63.03;30.10;;;;;;;5.02;100.00;103695.78;10484884;28;20640;-81
2022/01/18 16:32:45;;;;;;;52.38;27.65;;;;;;;5.00;100.00;103697.69;10484577;28;20040;-82
2022/01/18 16:37:46;;;;;;;59.13;30.85;;;;;;;4.98;100.00;103702.28;10483674;28;20059;-82
2022/01/18 16:42:48;;;;;;;69.15;32.00;;;;;;;5.06;100.00;103699.13;10502756;28;20044;-81
2022/01/18 16:47:49;;;;;;;80.47;35.78;;;;;;;5.07;100.00;103701.75;10499913;28;20028;-81
2022/01/18 16:52:49;;;;;;;50.88;29.92;;;;;;;5.10;100.00;103703.34;10467819;28;20440;-81
2022/01/18 16:57:51;;;;;;;68.00;35.08;;;;;;;5.12;100.00;103693.41;10500608;28;20048;-81
2022/01/18 17:02:52;;;;;;;59.53;31.92;;;;;;;5.13;100.00;103692.44;10500950;28;20455;-81
2022/01/18 17:07:52;;;;;;;85.18;34.70;;;;;;;5.17;100.00;103696.69;10516188;28;20032;-81
2022/01/18 17:12:52;;;;;;;72.45;34.97;;;;;;;5.19;100.00;103694.75;10499237;28;20028;-81
2022/01/18 17:17:53;;;;;;;62.45;32.17;;;;;;;5.19;100.00;103702.81;10515633;28;20460;-81
2022/01/18 17:22:53;;;;;;;52.70;29.38;;;;;;;5.10;100.00;103697.97;10499324;28;20025;-81
2022/01/18 17:27:54;;;;;;;57.95;34.55;;;;;;;5.07;100.00;103696.38;10481920;28;20376;-82
2022/01/18 17:32:54;;;;;;;74.05;33.65;;;;;;;5.04;100.00;103701.03;10483157;28;20116;-81
2022/01/18 17:37:57;;;;;;;53.78;30.90;;;;;;;5.04;100.00;103701.94;10498354;28;20049;-81
2022/01/18 17:42:57;;;;;;;60.40;35.70;;;;;;;5.08;100.00;103705.28;10498214;28;20143;-82
2022/01/18 17:47:58;;;;;;;108.85;38.55;;;;;;;5.12;100.00;103710.38;10498298;28;20036;-82
2022/01/18 17:52:59;;;;;;;67.78;32.55;;;;;;;5.17;100.00;103709.22;10498417;28;20058;-82
2022/01/18 17:57:59;;;;;;;84.05;34.33;;;;;;;5.15;100.00;103712.00;10505543;28;20033;-81
2022/01/18 18:03:00;;;;;;;59.50;29.67;;;;;;;5.15;100.00;103703.94;10508796;28;20497;-81
2022/01/18 18:08:00;;;;;;;53.17;27.00;;;;;;;5.14;100.00;103683.44;10498476;28;20043;-81
2022/01/18 18:13:01;;;;;;;63.03;28.33;;;;;;;5.11;100.00;103683.63;10498238;28;20029;-81
2022/01/18 18:18:03;;;;;;;71.80;30.38;;;;;;;5.10;100.00;103704.22;10499362;28;20051;-81
2022/01/18 18:23:03;;;;;;;66.35;30.73;;;;;;;5.11;100.00;103687.16;10497888;28;20408;-81
2022/01/18 18:28:04;;;;;;;54.15;27.77;;;;;;;5.09;100.00;103678.31;10480452;28;20028;-81
2022/01/18 18:33:05;;;;;;;63.33;30.23;;;;;;;5.12;100.00;103663.84;10481463;28;20067;-81
2022/01/18 18:38:09;;;;;;;55.70;27.67;;;;;;;5.14;100.00;103637.78;10499472;28;20157;-81
2022/01/18 18:43:29;;;;;;;76.00;29.92;;;;;;;5.05;100.00;103632.97;10480451;28;20480;-81
2022/01/18 18:48:31;;;;;;;55.13;27.02;;;;;;;5.03;100.00;103651.84;10484009;28;20120;-82
2022/01/18 18:53:32;;;;;;;67.25;28.70;;;;;;;5.00;100.00;103662.75;10497824;28;20028;-81
2022/01/18 19:03:38;;;;;;;76.20;30.30;;;;;;;4.99;100.00;103679.84;10503197;28;20068;-81
2022/01/18 19:08:39;;;;;;;94.68;31.98;;;;;;;4.99;100.00;103679.00;10487271;28;20048;-81
2022/01/18 19:13:40;;;;;;;94.57;33.58;;;;;;;4.90;100.00;103694.69;10486860;28;20369;-81
2022/01/18 19:18:40;;;;;;;60.05;29.83;;;;;;;4.85;100.00;103685.16;10487275;28;20040;-81
2022/01/18 19:23:42;;;;;;;75.03;33.15;;;;;;;4.73;100.00;103691.28;10487738;28;20029;-81
2022/01/18 19:28:42;;;;;;;90.80;35.60;;;;;;;4.49;100.00;103682.84;10502470;28;20036;-81
2022/01/18 19:33:43;;;;;;;72.22;31.15;;;;;;;4.24;100.00;103672.66;10502913;28;20032;-81
2022/01/18 19:38:45;;;;;;;61.35;31.23;;;;;;;4.19;100.00;103665.75;10504050;28;20106;-81
2022/01/18 19:43:46;;;;;;;144.63;32.63;;;;;;;4.19;100.00;103652.34;10530630;28;20044;-80
2022/01/18 19:48:46;;;;;;;105.50;30.48;;;;;;;4.26;100.00;103660.03;10518292;28;20040;-81
2022/01/18 19:53:47;;;;;;;80.22;26.67;;;;;;;4.18;100.00;103657.81;10526757;28;20036;-80
2022/01/18 19:58:48;;;;;;;142.52;29.70;;;;;;;4.12;100.00;103652.78;10510504;28;20043;-81
2022/01/18 20:03:49;;;;;;;92.72;26.20;;;;;;;4.12;100.00;103642.91;10525342;28;20050;-80
2022/01/18 20:08:49;;;;;;;104.63;27.83;;;;;;;4.16;100.00;103640.94;10510671;28;20037;-82
2022/01/18 20:13:51;;;;;;;143.32;29.52;;;;;;;4.13;100.00;103643.78;10509010;28;20039;-81
2022/01/18 20:18:53;;;;;;;151.55;29.25;;;;;;;4.06;100.00;103631.69;10529249;28;20039;-81
2022/01/18 20:23:55;;;;;;;203.00;35.95;;;;;;;4.05;100.00;103637.97;10507731;28;20032;-81
2022/01/18 20:28:57;;;;;;;166.75;31.33;;;;;;;3.93;100.00;103629.69;10512591;28;20085;-78
2022/01/18 20:33:59;;;;;;;71.90;20.73;;;;;;;3.90;100.00;103616.47;10508489;28;20031;-78
2022/01/18 20:38:59;;;;;;;83.70;20.60;;;;;;;3.81;100.00;103600.91;10522371;28;20060;-79
2022/01/18 20:44:06;;;;;;;84.85;25.00;;;;;;;3.77;100.00;103591.31;10506801;28;20028;-80
2022/01/18 20:49:06;;;;;;;135.98;24.77;;;;;;;3.79;100.00;103599.25;10503839;28;20097;-79
2022/01/18 20:54:10;;;;;;;48.33;22.20;;;;;;;3.80;100.00;103582.22;10500660;28;20435;-80
2022/01/18 20:59:10;;;;;;;65.55;23.27;;;;;;;3.84;100.00;103600.72;10517902;28;20052;-79
2022/01/18 21:04:11;;;;;;;94.18;22.88;;;;;;;3.90;100.00;103600.38;10499915;28;20039;-79
2022/01/18 21:09:11;;;;;;;39.22;21.92;;;;;;;3.97;100.00;103598.22;10483234;28;20043;-79
2022/01/18 21:14:21;;;;;;;77.38;23.52;;;;;;;3.97;100.00;103568.72;10499384;28;20071;-80
2022/01/18 21:19:23;;;;;;;50.28;22.33;;;;;;;3.96;100.00;103557.13;10499986;28;20032;-80
2022/01/18 21:24:27;;;;;;;39.60;19.98;;;;;;;3.96;100.00;103542.88;10481222;28;20422;-79
2022/01/18 21:29:28;;;;;;;106.82;25.55;;;;;;;4.02;100.00;103561.28;10499012;28;20036;-79
2022/01/18 21:34:28;;;;;;;78.20;21.42;;;;;;;3.99;100.00;103555.22;10490761;28;20476;-81
2022/01/18 21:39:29;;;;;;;71.68;25.60;;;;;;;3.90;100.00;103564.66;10508624;28;20036;-80
2022/01/18 21:44:29;;;;;;;35.65;19.95;;;;;;;3.89;100.00;103555.78;10481156;28;20070;-79
2022/01/18 21:49:30;;;;;;;55.97;23.05;;;;;;;3.92;100.00;103543.97;10481033;28;20043;-79
2022/01/18 21:54:30;;;;;;;78.25;24.48;;;;;;;3.88;100.00;103542.44;10480793;28;20074;-80
2022/01/18 21:59:31;;;;;;;87.25;23.20;;;;;;;3.75;100.00;103536.94;10499197;28;20457;-79
2022/01/18 22:04:31;;;;;;;40.75;19.27;;;;;;;3.69;100.00;103532.78;10498663;28;20071;-79
2022/01/18 22:09:32;;;;;;;96.95;23.92;;;;;;;3.56;100.00;103514.81;10499354;28;20040;-80
2022/01/18 22:14:32;;;;;;;115.18;39.60;;;;;;;3.47;100.00;103503.66;10497300;28;20052;-79
2022/01/18 22:19:33;;;;;;;33.33;16.55;;;;;;;3.26;100.00;103486.16;10480354;28;20058;-80
2022/01/18 22:24:33;;;;;;;37.75;16.38;;;;;;;3.12;100.00;103502.09;10480348;28;20128;-80
2022/01/18 22:29:34;;;;;;;42.35;18.98;;;;;;;3.06;100.00;103478.34;10508538;28;20108;-80
2022/01/18 22:34:34;;;;;;;34.05;17.48;;;;;;;3.07;100.00;103474.72;10535621;28;20139;-81
2022/01/18 22:39:34;;;;;;;47.55;18.08;;;;;;;2.97;100.00;103474.38;10535004;28;20075;-81
2022/01/18 22:44:35;;;;;;;88.95;19.00;;;;;;;2.76;100.00;103439.81;10533164;28;20123;-81
2022/01/18 22:49:36;;;;;;;63.92;19.90;;;;;;;2.60;100.00;103438.06;10537374;28;20041;-81
2022/01/18 22:54:41;;;;;;;66.45;20.00;;;;;;;2.61;100.00;103429.94;10522161;28;20056;-81
2022/01/18 22:59:42;;;;;;;33.28;15.15;;;;;;;2.48;100.00;103411.00;10525865;28;20025;-80
2022/01/18 23:04:45;;;;;;;63.47;18.48;;;;;;;2.32;100.00;103397.59;10544603;28;20032;-81
2022/01/18 23:09:46;;;;;;;22.05;11.52;;;;;;;2.24;100.00;103383.78;10546922;28;20032;-82
2022/01/18 23:14:46;;;;;;;45.25;15.85;;;;;;;2.23;100.00;103381.19;10547696;28;20052;-81
2022/01/18 23:19:47;;;;;;;80.95;17.63;;;;;;;2.28;100.00;103379.16;10549131;28;20029;-80
2022/01/18 23:24:48;;;;;;;51.38;18.00;;;;;;;2.30;100.00;103374.59;10547982;28;20040;-81
2022/01/18 23:29:48;;;;;;;53.25;15.60;;;;;;;2.30;100.00;103378.13;10548355;28;20039;-80
2022/01/18 23:34:49;;;;;;;26.95;16.83;;;;;;;2.30;100.00;103382.63;10547816;28;20549;-80
2022/01/18 23:39:59;;;;;;;68.35;19.95;;;;;;;2.36;100.00;103395.63;10562292;28;20076;-81
2022/01/18 23:44:59;;;;;;;57.10;22.48;;;;;;;2.44;100.00;103373.84;10531830;28;20051;-81
2022/01/18 23:50:00;;;;;;;55.83;19.02;;;;;;;2.42;100.00;103370.38;10529440;28;20021;-81
2022/01/18 23:55:00;;;;;;;25.77;14.23;;;;;;;2.31;100.00;103345.09;10549913;28;20063;-80
